sensor_id;sensor_type;location;lat;lon;timestamp;P1;durP1;ratioP1;P2;durP2;ratioP2
63394;SDS011;49531;-34.520;150.798;2023-08-24T00:02:00;3.35;;;1.05;;
63394;SDS011;49531;-34.520;150.798;2023-08-24T00:04:28;3.67;;;1.25;;
63394;SDS011;49531;-34.520;150.798;2023-08-24T00:06:55;4.80;;;0.95;;
63394;SDS011;49531;-34.520;150.798;2023-08-24T00:09:22;1.90;;;0.90;;
63394;SDS011;49531;-34.520;150.798;2023-08-24T00:11:51;3.47;;;1.00;;
63394;SDS011;49531;-34.520;150.798;2023-08-24T00:14:19;3.67;;;1.17;;
63394;SDS011;49531;-34.520;150.798;2023-08-24T00:16:46;3.08;;;1.20;;
63394;SDS011;49531;-34.520;150.798;2023-08-24T00:19:13;2.40;;;0.98;;
63394;SDS011;49531;-34.520;150.798;2023-08-24T00:21:40;2.75;;;1.13;;
63394;SDS011;49531;-34.520;150.798;2023-08-24T00:24:07;2.05;;;1.08;;
63394;SDS011;49531;-34.520;150.798;2023-08-24T00:26:34;2.30;;;0.90;;
63394;SDS011;49531;-34.520;150.798;2023-08-24T00:29:02;4.00;;;1.25;;
63394;SDS011;49531;-34.520;150.798;2023-08-24T00:31:29;4.40;;;1.05;;
63394;SDS011;49531;-34.520;150.798;2023-08-24T00:33:56;5.32;;;1.30;;
63394;SDS011;49531;-34.520;150.798;2023-08-24T00:36:23;2.25;;;1.10;;
63394;SDS011;49531;-34.520;150.798;2023-08-24T00:38:50;2.90;;;1.20;;
63394;SDS011;49531;-34.520;150.798;2023-08-24T00:41:18;5.10;;;1.30;;
63394;SDS011;49531;-34.520;150.798;2023-08-24T00:43:47;2.70;;;1.10;;
63394;SDS011;49531;-34.520;150.798;2023-08-24T00:46:15;3.65;;;1.10;;
63394;SDS011;49531;-34.520;150.798;2023-08-24T00:48:44;6.05;;;1.17;;
63394;SDS011;49531;-34.520;150.798;2023-08-24T00:51:11;3.25;;;1.35;;
63394;SDS011;49531;-34.520;150.798;2023-08-24T00:53:38;3.10;;;1.23;;
63394;SDS011;49531;-34.520;150.798;2023-08-24T00:56:06;3.67;;;1.17;;
63394;SDS011;49531;-34.520;150.798;2023-08-24T00:58:33;4.15;;;1.10;;
63394;SDS011;49531;-34.520;150.798;2023-08-24T01:01:00;3.67;;;1.20;;
63394;SDS011;49531;-34.520;150.798;2023-08-24T01:03:27;2.53;;;0.90;;
63394;SDS011;49531;-34.520;150.798;2023-08-24T01:05:54;5.57;;;1.20;;
63394;SDS011;49531;-34.520;150.798;2023-08-24T01:08:21;5.60;;;1.38;;
63394;SDS011;49531;-34.520;150.798;2023-08-24T01:10:57;8.77;;;1.50;;
63394;SDS011;49531;-34.520;150.798;2023-08-24T01:13:39;5.10;;;1.30;;
63394;SDS011;49531;-34.520;150.798;2023-08-24T01:16:31;6.15;;;1.60;;
63394;SDS011;49531;-34.520;150.798;2023-08-24T01:19:02;8.45;;;1.58;;
63394;SDS011;49531;-34.520;150.798;2023-08-24T01:21:32;6.45;;;1.48;;
63394;SDS011;49531;-34.520;150.798;2023-08-24T01:26:59;4.25;;;1.27;;
63394;SDS011;49531;-34.520;150.798;2023-08-24T01:29:27;6.13;;;1.30;;
63394;SDS011;49531;-34.520;150.798;2023-08-24T01:31:55;6.93;;;1.50;;
63394;SDS011;49531;-34.520;150.798;2023-08-24T01:34:22;5.70;;;1.58;;
63394;SDS011;49531;-34.520;150.798;2023-08-24T01:36:49;5.13;;;1.50;;
63394;SDS011;49531;-34.520;150.798;2023-08-24T01:42:10;4.22;;;1.23;;
63394;SDS011;49531;-34.520;150.798;2023-08-24T01:48:17;6.15;;;1.48;;
63394;SDS011;49531;-34.520;150.798;2023-08-24T01:50:45;6.88;;;1.40;;
63394;SDS011;49531;-34.520;150.798;2023-08-24T01:53:13;7.60;;;1.38;;
63394;SDS011;49531;-34.520;150.798;2023-08-24T01:55:40;4.13;;;1.40;;
63394;SDS011;49531;-34.520;150.798;2023-08-24T01:58:07;4.20;;;1.30;;
63394;SDS011;49531;-34.520;150.798;2023-08-24T02:00:35;5.97;;;1.60;;
63394;SDS011;49531;-34.520;150.798;2023-08-24T02:03:02;4.32;;;1.58;;
63394;SDS011;49531;-34.520;150.798;2023-08-24T02:05:29;2.38;;;1.05;;
63394;SDS011;49531;-34.520;150.798;2023-08-24T02:07:56;3.53;;;1.40;;
63394;SDS011;49531;-34.520;150.798;2023-08-24T02:10:23;4.60;;;1.30;;
63394;SDS011;49531;-34.520;150.798;2023-08-24T02:12:50;3.05;;;1.15;;
63394;SDS011;49531;-34.520;150.798;2023-08-24T02:15:17;4.35;;;1.38;;
63394;SDS011;49531;-34.520;150.798;2023-08-24T02:17:44;4.80;;;1.40;;
63394;SDS011;49531;-34.520;150.798;2023-08-24T02:20:11;3.58;;;1.48;;
63394;SDS011;49531;-34.520;150.798;2023-08-24T02:22:39;3.55;;;1.30;;
63394;SDS011;49531;-34.520;150.798;2023-08-24T02:25:06;3.35;;;1.10;;
63394;SDS011;49531;-34.520;150.798;2023-08-24T02:27:35;2.30;;;1.08;;
63394;SDS011;49531;-34.520;150.798;2023-08-24T02:30:07;5.57;;;1.40;;
63394;SDS011;49531;-34.520;150.798;2023-08-24T02:32:58;4.75;;;1.40;;
63394;SDS011;49531;-34.520;150.798;2023-08-24T02:35:25;3.55;;;1.15;;
63394;SDS011;49531;-34.520;150.798;2023-08-24T02:37:52;4.53;;;1.10;;
63394;SDS011;49531;-34.520;150.798;2023-08-24T02:40:21;3.22;;;1.25;;
63394;SDS011;49531;-34.520;150.798;2023-08-24T02:42:48;4.03;;;1.10;;
63394;SDS011;49531;-34.520;150.798;2023-08-24T02:45:16;5.50;;;1.38;;
63394;SDS011;49531;-34.520;150.798;2023-08-24T02:47:43;4.05;;;1.20;;
63394;SDS011;49531;-34.520;150.798;2023-08-24T02:50:10;3.53;;;1.10;;
63394;SDS011;49531;-34.520;150.798;2023-08-24T02:52:37;3.58;;;1.33;;
63394;SDS011;49531;-34.520;150.798;2023-08-24T02:55:04;4.35;;;1.40;;
63394;SDS011;49531;-34.520;150.798;2023-08-24T02:57:31;3.97;;;1.50;;
63394;SDS011;49531;-34.520;150.798;2023-08-24T03:00:01;3.17;;;1.13;;
63394;SDS011;49531;-34.520;150.798;2023-08-24T03:02:29;3.10;;;1.27;;
63394;SDS011;49531;-34.520;150.798;2023-08-24T03:04:56;4.22;;;1.40;;
63394;SDS011;49531;-34.520;150.798;2023-08-24T03:07:23;5.05;;;1.30;;
63394;SDS011;49531;-34.520;150.798;2023-08-24T03:09:50;5.30;;;1.40;;
63394;SDS011;49531;-34.520;150.798;2023-08-24T03:12:17;3.38;;;1.33;;
63394;SDS011;49531;-34.520;150.798;2023-08-24T03:14:44;3.60;;;1.60;;
63394;SDS011;49531;-34.520;150.798;2023-08-24T03:17:12;5.53;;;1.50;;
63394;SDS011;49531;-34.520;150.798;2023-08-24T03:19:39;4.45;;;1.40;;
63394;SDS011;49531;-34.520;150.798;2023-08-24T03:22:06;4.72;;;1.40;;
63394;SDS011;49531;-34.520;150.798;2023-08-24T03:24:33;4.00;;;1.50;;
63394;SDS011;49531;-34.520;150.798;2023-08-24T03:27:00;2.72;;;1.42;;
63394;SDS011;49531;-34.520;150.798;2023-08-24T03:29:27;4.60;;;1.42;;
63394;SDS011;49531;-34.520;150.798;2023-08-24T03:31:54;3.20;;;1.52;;
63394;SDS011;49531;-34.520;150.798;2023-08-24T03:34:21;4.07;;;1.55;;
63394;SDS011;49531;-34.520;150.798;2023-08-24T03:36:49;6.68;;;1.60;;
63394;SDS011;49531;-34.520;150.798;2023-08-24T03:39:16;6.22;;;1.42;;
63394;SDS011;49531;-34.520;150.798;2023-08-24T03:41:43;2.42;;;1.25;;
63394;SDS011;49531;-34.520;150.798;2023-08-24T03:44:10;4.10;;;1.40;;
63394;SDS011;49531;-34.520;150.798;2023-08-24T03:46:37;3.17;;;1.30;;
63394;SDS011;49531;-34.520;150.798;2023-08-24T03:49:04;3.70;;;1.35;;
63394;SDS011;49531;-34.520;150.798;2023-08-24T03:51:31;2.95;;;1.40;;
63394;SDS011;49531;-34.520;150.798;2023-08-24T03:53:58;5.03;;;1.38;;
63394;SDS011;49531;-34.520;150.798;2023-08-24T03:56:25;4.07;;;1.40;;
63394;SDS011;49531;-34.520;150.798;2023-08-24T03:58:52;3.85;;;1.30;;
63394;SDS011;49531;-34.520;150.798;2023-08-24T04:01:19;2.17;;;1.40;;
63394;SDS011;49531;-34.520;150.798;2023-08-24T04:03:46;2.95;;;1.27;;
63394;SDS011;49531;-34.520;150.798;2023-08-24T04:06:14;4.22;;;1.33;;
63394;SDS011;49531;-34.520;150.798;2023-08-24T04:08:43;3.28;;;1.27;;
63394;SDS011;49531;-34.520;150.798;2023-08-24T04:11:10;4.03;;;1.52;;
63394;SDS011;49531;-34.520;150.798;2023-08-24T04:13:37;3.63;;;1.50;;
63394;SDS011;49531;-34.520;150.798;2023-08-24T04:16:04;5.80;;;1.55;;
63394;SDS011;49531;-34.520;150.798;2023-08-24T04:18:31;4.20;;;1.50;;
63394;SDS011;49531;-34.520;150.798;2023-08-24T04:20:59;4.03;;;1.48;;
63394;SDS011;49531;-34.520;150.798;2023-08-24T04:23:26;3.97;;;1.30;;
63394;SDS011;49531;-34.520;150.798;2023-08-24T04:25:54;2.88;;;1.20;;
63394;SDS011;49531;-34.520;150.798;2023-08-24T04:28:21;3.90;;;1.40;;
63394;SDS011;49531;-34.520;150.798;2023-08-24T04:30:54;4.22;;;1.63;;
63394;SDS011;49531;-34.520;150.798;2023-08-24T04:33:22;3.55;;;1.30;;
63394;SDS011;49531;-34.520;150.798;2023-08-24T04:35:50;3.20;;;1.30;;
63394;SDS011;49531;-34.520;150.798;2023-08-24T04:38:17;3.90;;;1.40;;
63394;SDS011;49531;-34.520;150.798;2023-08-24T04:43:14;4.00;;;1.33;;
63394;SDS011;49531;-34.520;150.798;2023-08-24T04:45:42;4.65;;;1.23;;
63394;SDS011;49531;-34.520;150.798;2023-08-24T04:48:09;4.80;;;1.40;;
63394;SDS011;49531;-34.520;150.798;2023-08-24T04:50:36;4.10;;;1.40;;
63394;SDS011;49531;-34.520;150.798;2023-08-24T04:53:03;3.05;;;1.30;;
63394;SDS011;49531;-34.520;150.798;2023-08-24T04:55:30;4.13;;;1.60;;
63394;SDS011;49531;-34.520;150.798;2023-08-24T04:57:57;3.92;;;1.35;;
63394;SDS011;49531;-34.520;150.798;2023-08-24T05:00:24;2.97;;;1.30;;
63394;SDS011;49531;-34.520;150.798;2023-08-24T05:02:51;3.33;;;1.50;;
63394;SDS011;49531;-34.520;150.798;2023-08-24T05:05:18;2.95;;;1.27;;
63394;SDS011;49531;-34.520;150.798;2023-08-24T05:07:46;3.47;;;1.40;;
63394;SDS011;49531;-34.520;150.798;2023-08-24T05:10:13;5.68;;;1.40;;
63394;SDS011;49531;-34.520;150.798;2023-08-24T05:12:40;3.00;;;1.38;;
63394;SDS011;49531;-34.520;150.798;2023-08-24T05:15:07;4.60;;;1.40;;
63394;SDS011;49531;-34.520;150.798;2023-08-24T05:17:34;3.63;;;1.30;;
63394;SDS011;49531;-34.520;150.798;2023-08-24T05:20:01;1.80;;;1.20;;
63394;SDS011;49531;-34.520;150.798;2023-08-24T05:22:29;2.63;;;1.30;;
63394;SDS011;49531;-34.520;150.798;2023-08-24T05:24:56;2.85;;;1.35;;
63394;SDS011;49531;-34.520;150.798;2023-08-24T05:27:23;2.97;;;1.40;;
63394;SDS011;49531;-34.520;150.798;2023-08-24T05:29:50;4.20;;;1.45;;
63394;SDS011;49531;-34.520;150.798;2023-08-24T05:32:17;3.38;;;1.30;;
63394;SDS011;49531;-34.520;150.798;2023-08-24T05:34:45;5.00;;;1.50;;
63394;SDS011;49531;-34.520;150.798;2023-08-24T05:37:12;3.72;;;1.30;;
63394;SDS011;49531;-34.520;150.798;2023-08-24T05:39:39;2.70;;;1.38;;
63394;SDS011;49531;-34.520;150.798;2023-08-24T05:42:07;4.18;;;1.40;;
63394;SDS011;49531;-34.520;150.798;2023-08-24T05:44:40;3.83;;;1.42;;
63394;SDS011;49531;-34.520;150.798;2023-08-24T05:47:07;3.67;;;1.25;;
63394;SDS011;49531;-34.520;150.798;2023-08-24T05:49:34;3.28;;;1.30;;
63394;SDS011;49531;-34.520;150.798;2023-08-24T05:52:01;2.72;;;1.30;;
63394;SDS011;49531;-34.520;150.798;2023-08-24T05:54:29;1.55;;;1.17;;
63394;SDS011;49531;-34.520;150.798;2023-08-24T05:56:56;4.72;;;1.20;;
63394;SDS011;49531;-34.520;150.798;2023-08-24T05:59:26;4.40;;;1.27;;
63394;SDS011;49531;-34.520;150.798;2023-08-24T06:01:53;5.50;;;1.30;;
63394;SDS011;49531;-34.520;150.798;2023-08-24T06:04:21;2.35;;;1.50;;
63394;SDS011;49531;-34.520;150.798;2023-08-24T06:06:48;2.42;;;1.30;;
63394;SDS011;49531;-34.520;150.798;2023-08-24T06:09:15;4.70;;;1.50;;
63394;SDS011;49531;-34.520;150.798;2023-08-24T06:11:42;3.92;;;1.52;;
63394;SDS011;49531;-34.520;150.798;2023-08-24T06:14:09;3.60;;;1.40;;
63394;SDS011;49531;-34.520;150.798;2023-08-24T06:16:37;4.53;;;1.40;;
63394;SDS011;49531;-34.520;150.798;2023-08-24T06:19:04;5.60;;;1.45;;
63394;SDS011;49531;-34.520;150.798;2023-08-24T06:21:31;2.78;;;1.30;;
63394;SDS011;49531;-34.520;150.798;2023-08-24T06:23:58;3.38;;;1.33;;
63394;SDS011;49531;-34.520;150.798;2023-08-24T06:26:26;4.32;;;1.48;;
63394;SDS011;49531;-34.520;150.798;2023-08-24T06:28:53;3.55;;;1.33;;
63394;SDS011;49531;-34.520;150.798;2023-08-24T06:31:21;3.83;;;1.25;;
63394;SDS011;49531;-34.520;150.798;2023-08-24T06:33:48;3.63;;;1.30;;
63394;SDS011;49531;-34.520;150.798;2023-08-24T06:36:16;2.42;;;1.40;;
63394;SDS011;49531;-34.520;150.798;2023-08-24T06:38:43;2.97;;;1.10;;
63394;SDS011;49531;-34.520;150.798;2023-08-24T06:41:10;1.98;;;1.20;;
63394;SDS011;49531;-34.520;150.798;2023-08-24T06:43:37;3.88;;;1.30;;
63394;SDS011;49531;-34.520;150.798;2023-08-24T06:46:05;3.13;;;1.10;;
63394;SDS011;49531;-34.520;150.798;2023-08-24T06:48:35;2.60;;;1.40;;
63394;SDS011;49531;-34.520;150.798;2023-08-24T06:51:07;2.67;;;1.10;;
63394;SDS011;49531;-34.520;150.798;2023-08-24T06:53:35;1.60;;;1.10;;
63394;SDS011;49531;-34.520;150.798;2023-08-24T06:56:02;4.13;;;1.27;;
63394;SDS011;49531;-34.520;150.798;2023-08-24T06:58:30;2.03;;;1.00;;
63394;SDS011;49531;-34.520;150.798;2023-08-24T07:00:57;1.73;;;1.10;;
63394;SDS011;49531;-34.520;150.798;2023-08-24T07:03:24;1.95;;;1.00;;
63394;SDS011;49531;-34.520;150.798;2023-08-24T07:05:51;2.92;;;1.20;;
63394;SDS011;49531;-34.520;150.798;2023-08-24T07:08:18;2.45;;;1.20;;
63394;SDS011;49531;-34.520;150.798;2023-08-24T07:10:45;3.13;;;1.10;;
63394;SDS011;49531;-34.520;150.798;2023-08-24T07:13:12;2.40;;;1.30;;
63394;SDS011;49531;-34.520;150.798;2023-08-24T07:15:39;2.45;;;1.20;;
63394;SDS011;49531;-34.520;150.798;2023-08-24T07:18:06;3.10;;;1.10;;
63394;SDS011;49531;-34.520;150.798;2023-08-24T07:20:34;1.15;;;0.90;;
63394;SDS011;49531;-34.520;150.798;2023-08-24T07:23:02;2.67;;;1.17;;
63394;SDS011;49531;-34.520;150.798;2023-08-24T07:25:30;2.13;;;1.10;;
63394;SDS011;49531;-34.520;150.798;2023-08-24T07:27:57;1.95;;;1.10;;
63394;SDS011;49531;-34.520;150.798;2023-08-24T07:30:27;1.27;;;1.10;;
63394;SDS011;49531;-34.520;150.798;2023-08-24T07:32:55;2.85;;;1.30;;
63394;SDS011;49531;-34.520;150.798;2023-08-24T07:35:22;1.77;;;1.00;;
63394;SDS011;49531;-34.520;150.798;2023-08-24T07:37:52;2.58;;;1.30;;
63394;SDS011;49531;-34.520;150.798;2023-08-24T07:40:20;2.58;;;1.30;;
63394;SDS011;49531;-34.520;150.798;2023-08-24T07:42:48;2.25;;;1.20;;
63394;SDS011;49531;-34.520;150.798;2023-08-24T07:45:18;1.55;;;1.00;;
63394;SDS011;49531;-34.520;150.798;2023-08-24T07:47:46;3.28;;;1.10;;
63394;SDS011;49531;-34.520;150.798;2023-08-24T07:50:13;2.53;;;1.17;;
63394;SDS011;49531;-34.520;150.798;2023-08-24T07:52:40;1.63;;;1.10;;
63394;SDS011;49531;-34.520;150.798;2023-08-24T07:55:08;1.75;;;1.10;;
63394;SDS011;49531;-34.520;150.798;2023-08-24T07:57:36;2.67;;;1.20;;
63394;SDS011;49531;-34.520;150.798;2023-08-24T08:00:04;1.35;;;1.00;;
63394;SDS011;49531;-34.520;150.798;2023-08-24T08:02:31;2.13;;;1.20;;
63394;SDS011;49531;-34.520;150.798;2023-08-24T08:04:58;2.90;;;1.13;;
63394;SDS011;49531;-34.520;150.798;2023-08-24T08:07:26;2.90;;;1.33;;
63394;SDS011;49531;-34.520;150.798;2023-08-24T08:09:53;2.75;;;1.40;;
63394;SDS011;49531;-34.520;150.798;2023-08-24T08:12:20;1.88;;;1.20;;
63394;SDS011;49531;-34.520;150.798;2023-08-24T08:14:47;3.13;;;1.20;;
63394;SDS011;49531;-34.520;150.798;2023-08-24T08:17:14;2.83;;;1.10;;
63394;SDS011;49531;-34.520;150.798;2023-08-24T08:19:41;3.55;;;1.20;;
63394;SDS011;49531;-34.520;150.798;2023-08-24T08:22:08;1.80;;;1.13;;
63394;SDS011;49531;-34.520;150.798;2023-08-24T08:24:35;2.63;;;1.30;;
63394;SDS011;49531;-34.520;150.798;2023-08-24T08:27:02;2.22;;;1.17;;
63394;SDS011;49531;-34.520;150.798;2023-08-24T08:29:29;2.78;;;1.10;;
63394;SDS011;49531;-34.520;150.798;2023-08-24T08:31:59;2.55;;;1.20;;
63394;SDS011;49531;-34.520;150.798;2023-08-24T08:34:26;2.13;;;1.15;;
63394;SDS011;49531;-34.520;150.798;2023-08-24T08:36:53;2.95;;;1.27;;
63394;SDS011;49531;-34.520;150.798;2023-08-24T08:39:20;2.10;;;1.20;;
63394;SDS011;49531;-34.520;150.798;2023-08-24T08:41:47;1.88;;;1.13;;
63394;SDS011;49531;-34.520;150.798;2023-08-24T08:44:15;2.38;;;1.40;;
63394;SDS011;49531;-34.520;150.798;2023-08-24T08:46:43;3.67;;;1.40;;
63394;SDS011;49531;-34.520;150.798;2023-08-24T08:49:12;2.15;;;1.40;;
63394;SDS011;49531;-34.520;150.798;2023-08-24T08:51:42;2.50;;;1.50;;
63394;SDS011;49531;-34.520;150.798;2023-08-24T08:54:09;2.38;;;1.40;;
63394;SDS011;49531;-34.520;150.798;2023-08-24T08:56:37;1.92;;;1.35;;
63394;SDS011;49531;-34.520;150.798;2023-08-24T08:59:05;2.15;;;1.30;;
63394;SDS011;49531;-34.520;150.798;2023-08-24T09:01:36;1.85;;;1.65;;
63394;SDS011;49531;-34.520;150.798;2023-08-24T09:04:04;4.15;;;1.52;;
63394;SDS011;49531;-34.520;150.798;2023-08-24T09:06:33;2.05;;;1.40;;
63394;SDS011;49531;-34.520;150.798;2023-08-24T09:09:01;2.13;;;1.40;;
63394;SDS011;49531;-34.520;150.798;2023-08-24T09:11:28;3.35;;;1.60;;
63394;SDS011;49531;-34.520;150.798;2023-08-24T09:13:55;2.13;;;1.45;;
63394;SDS011;49531;-34.520;150.798;2023-08-24T09:16:23;3.08;;;1.63;;
63394;SDS011;49531;-34.520;150.798;2023-08-24T09:18:56;2.42;;;1.50;;
63394;SDS011;49531;-34.520;150.798;2023-08-24T09:21:23;2.45;;;1.50;;
63394;SDS011;49531;-34.520;150.798;2023-08-24T09:23:54;2.83;;;1.55;;
63394;SDS011;49531;-34.520;150.798;2023-08-24T09:26:31;2.97;;;1.70;;
63394;SDS011;49531;-34.520;150.798;2023-08-24T09:29:01;2.25;;;1.58;;
63394;SDS011;49531;-34.520;150.798;2023-08-24T09:31:39;2.75;;;1.50;;
63394;SDS011;49531;-34.520;150.798;2023-08-24T09:34:06;2.40;;;1.50;;
63394;SDS011;49531;-34.520;150.798;2023-08-24T09:36:35;2.28;;;1.50;;
63394;SDS011;49531;-34.520;150.798;2023-08-24T09:39:03;3.67;;;1.60;;
63394;SDS011;49531;-34.520;150.798;2023-08-24T09:41:45;3.00;;;1.58;;
63394;SDS011;49531;-34.520;150.798;2023-08-24T09:44:18;1.98;;;1.50;;
63394;SDS011;49531;-34.520;150.798;2023-08-24T09:46:45;1.80;;;1.38;;
63394;SDS011;49531;-34.520;150.798;2023-08-24T09:49:13;2.60;;;1.45;;
63394;SDS011;49531;-34.520;150.798;2023-08-24T09:51:40;2.20;;;1.40;;
63394;SDS011;49531;-34.520;150.798;2023-08-24T09:54:08;2.65;;;1.52;;
63394;SDS011;49531;-34.520;150.798;2023-08-24T09:56:39;3.13;;;1.60;;
63394;SDS011;49531;-34.520;150.798;2023-08-24T09:59:16;3.85;;;1.30;;
63394;SDS011;49531;-34.520;150.798;2023-08-24T10:01:45;1.92;;;1.33;;
63394;SDS011;49531;-34.520;150.798;2023-08-24T10:04:14;4.05;;;1.30;;
63394;SDS011;49531;-34.520;150.798;2023-08-24T10:06:44;1.88;;;1.23;;
63394;SDS011;49531;-34.520;150.798;2023-08-24T10:09:18;1.95;;;1.30;;
63394;SDS011;49531;-34.520;150.798;2023-08-24T10:11:55;2.40;;;1.25;;
63394;SDS011;49531;-34.520;150.798;2023-08-24T10:15:00;2.45;;;1.40;;
63394;SDS011;49531;-34.520;150.798;2023-08-24T10:17:38;2.33;;;1.30;;
63394;SDS011;49531;-34.520;150.798;2023-08-24T10:20:06;2.33;;;1.35;;
63394;SDS011;49531;-34.520;150.798;2023-08-24T10:22:36;2.08;;;1.20;;
63394;SDS011;49531;-34.520;150.798;2023-08-24T10:25:07;1.75;;;1.10;;
63394;SDS011;49531;-34.520;150.798;2023-08-24T10:27:37;1.52;;;1.10;;
63394;SDS011;49531;-34.520;150.798;2023-08-24T10:30:12;2.40;;;1.27;;
63394;SDS011;49531;-34.520;150.798;2023-08-24T10:32:41;1.42;;;1.20;;
63394;SDS011;49531;-34.520;150.798;2023-08-24T10:35:11;2.17;;;1.27;;
63394;SDS011;49531;-34.520;150.798;2023-08-24T10:37:41;3.38;;;1.45;;
63394;SDS011;49531;-34.520;150.798;2023-08-24T10:40:13;2.13;;;1.25;;
63394;SDS011;49531;-34.520;150.798;2023-08-24T10:42:56;3.15;;;1.10;;
63394;SDS011;49531;-34.520;150.798;2023-08-24T10:45:24;1.88;;;1.20;;
63394;SDS011;49531;-34.520;150.798;2023-08-24T10:47:52;1.77;;;1.30;;
63394;SDS011;49531;-34.520;150.798;2023-08-24T10:50:19;1.63;;;1.20;;
63394;SDS011;49531;-34.520;150.798;2023-08-24T10:52:48;2.25;;;1.20;;
63394;SDS011;49531;-34.520;150.798;2023-08-24T10:55:22;2.75;;;1.13;;
63394;SDS011;49531;-34.520;150.798;2023-08-24T10:57:57;3.30;;;1.27;;
63394;SDS011;49531;-34.520;150.798;2023-08-24T11:00:27;1.50;;;1.20;;
63394;SDS011;49531;-34.520;150.798;2023-08-24T11:02:57;2.20;;;1.30;;
63394;SDS011;49531;-34.520;150.798;2023-08-24T11:05:28;2.30;;;1.25;;
63394;SDS011;49531;-34.520;150.798;2023-08-24T11:10:34;1.48;;;1.20;;
63394;SDS011;49531;-34.520;150.798;2023-08-24T11:13:11;2.80;;;1.40;;
63394;SDS011;49531;-34.520;150.798;2023-08-24T11:15:44;1.52;;;1.10;;
63394;SDS011;49531;-34.520;150.798;2023-08-24T11:18:20;2.17;;;1.20;;
63394;SDS011;49531;-34.520;150.798;2023-08-24T11:20:55;1.50;;;1.20;;
63394;SDS011;49531;-34.520;150.798;2023-08-24T11:23:23;3.15;;;1.35;;
63394;SDS011;49531;-34.520;150.798;2023-08-24T11:25:51;2.38;;;1.40;;
63394;SDS011;49531;-34.520;150.798;2023-08-24T11:28:25;1.35;;;1.20;;
63394;SDS011;49531;-34.520;150.798;2023-08-24T11:30:54;1.45;;;1.20;;
63394;SDS011;49531;-34.520;150.798;2023-08-24T11:33:28;1.45;;;1.27;;
63394;SDS011;49531;-34.520;150.798;2023-08-24T11:35:57;2.25;;;1.10;;
63394;SDS011;49531;-34.520;150.798;2023-08-24T11:38:25;1.95;;;1.30;;
63394;SDS011;49531;-34.520;150.798;2023-08-24T11:41:36;1.45;;;1.13;;
63394;SDS011;49531;-34.520;150.798;2023-08-24T11:44:00;1.48;;;1.10;;
63394;SDS011;49531;-34.520;150.798;2023-08-24T11:46:28;1.65;;;1.13;;
63394;SDS011;49531;-34.520;150.798;2023-08-24T11:48:56;1.75;;;1.30;;
63394;SDS011;49531;-34.520;150.798;2023-08-24T11:51:24;2.28;;;1.20;;
63394;SDS011;49531;-34.520;150.798;2023-08-24T11:53:55;1.38;;;1.10;;
63394;SDS011;49531;-34.520;150.798;2023-08-24T11:56:26;1.58;;;1.13;;
63394;SDS011;49531;-34.520;150.798;2023-08-24T11:58:53;1.58;;;1.20;;
63394;SDS011;49531;-34.520;150.798;2023-08-24T12:01:21;3.05;;;1.27;;
63394;SDS011;49531;-34.520;150.798;2023-08-24T12:03:48;1.98;;;1.20;;
63394;SDS011;49531;-34.520;150.798;2023-08-24T12:06:15;2.22;;;1.30;;
63394;SDS011;49531;-34.520;150.798;2023-08-24T12:08:45;1.77;;;1.15;;
63394;SDS011;49531;-34.520;150.798;2023-08-24T12:11:17;2.25;;;1.30;;
63394;SDS011;49531;-34.520;150.798;2023-08-24T12:13:49;2.80;;;1.00;;
63394;SDS011;49531;-34.520;150.798;2023-08-24T12:16:18;1.50;;;1.10;;
63394;SDS011;49531;-34.520;150.798;2023-08-24T12:18:57;1.48;;;1.20;;
63394;SDS011;49531;-34.520;150.798;2023-08-24T12:21:33;3.00;;;1.30;;
63394;SDS011;49531;-34.520;150.798;2023-08-24T12:24:04;1.77;;;1.20;;
63394;SDS011;49531;-34.520;150.798;2023-08-24T12:26:32;1.90;;;1.27;;
63394;SDS011;49531;-34.520;150.798;2023-08-24T12:29:04;1.63;;;1.17;;
63394;SDS011;49531;-34.520;150.798;2023-08-24T12:31:32;2.10;;;1.30;;
63394;SDS011;49531;-34.520;150.798;2023-08-24T12:34:01;2.45;;;1.40;;
63394;SDS011;49531;-34.520;150.798;2023-08-24T12:36:29;2.03;;;1.30;;
63394;SDS011;49531;-34.520;150.798;2023-08-24T12:39:01;1.33;;;1.20;;
63394;SDS011;49531;-34.520;150.798;2023-08-24T12:41:33;2.75;;;1.33;;
63394;SDS011;49531;-34.520;150.798;2023-08-24T12:44:00;2.55;;;1.30;;
63394;SDS011;49531;-34.520;150.798;2023-08-24T12:46:31;2.17;;;1.50;;
63394;SDS011;49531;-34.520;150.798;2023-08-24T12:48:58;2.03;;;1.30;;
63394;SDS011;49531;-34.520;150.798;2023-08-24T12:51:25;3.05;;;1.30;;
63394;SDS011;49531;-34.520;150.798;2023-08-24T12:53:53;2.35;;;1.20;;
63394;SDS011;49531;-34.520;150.798;2023-08-24T12:56:23;2.58;;;1.40;;
63394;SDS011;49531;-34.520;150.798;2023-08-24T12:58:50;1.75;;;1.10;;
63394;SDS011;49531;-34.520;150.798;2023-08-24T13:01:17;2.20;;;1.30;;
63394;SDS011;49531;-34.520;150.798;2023-08-24T13:03:44;1.85;;;1.20;;
63394;SDS011;49531;-34.520;150.798;2023-08-24T13:06:11;1.77;;;1.40;;
63394;SDS011;49531;-34.520;150.798;2023-08-24T13:08:38;2.33;;;1.48;;
63394;SDS011;49531;-34.520;150.798;2023-08-24T13:11:05;2.38;;;1.30;;
63394;SDS011;49531;-34.520;150.798;2023-08-24T13:13:32;1.60;;;1.30;;
63394;SDS011;49531;-34.520;150.798;2023-08-24T13:15:59;1.73;;;1.35;;
63394;SDS011;49531;-34.520;150.798;2023-08-24T13:18:26;2.67;;;1.50;;
63394;SDS011;49531;-34.520;150.798;2023-08-24T13:20:53;2.30;;;1.35;;
63394;SDS011;49531;-34.520;150.798;2023-08-24T13:23:20;1.80;;;1.20;;
63394;SDS011;49531;-34.520;150.798;2023-08-24T13:25:47;1.85;;;1.27;;
63394;SDS011;49531;-34.520;150.798;2023-08-24T13:28:14;2.58;;;1.40;;
63394;SDS011;49531;-34.520;150.798;2023-08-24T13:30:42;2.65;;;1.20;;
63394;SDS011;49531;-34.520;150.798;2023-08-24T13:33:09;2.00;;;1.40;;
63394;SDS011;49531;-34.520;150.798;2023-08-24T13:35:37;2.28;;;1.40;;
63394;SDS011;49531;-34.520;150.798;2023-08-24T13:38:04;1.55;;;1.33;;
63394;SDS011;49531;-34.520;150.798;2023-08-24T13:40:32;1.70;;;1.33;;
63394;SDS011;49531;-34.520;150.798;2023-08-24T13:42:59;1.60;;;1.40;;
63394;SDS011;49531;-34.520;150.798;2023-08-24T13:45:26;2.08;;;1.45;;
63394;SDS011;49531;-34.520;150.798;2023-08-24T13:47:56;2.00;;;1.40;;
63394;SDS011;49531;-34.520;150.798;2023-08-24T13:50:23;1.95;;;1.50;;
63394;SDS011;49531;-34.520;150.798;2023-08-24T13:52:50;1.92;;;1.38;;
63394;SDS011;49531;-34.520;150.798;2023-08-24T13:55:17;2.13;;;1.30;;
63394;SDS011;49531;-34.520;150.798;2023-08-24T13:57:44;1.98;;;1.50;;
63394;SDS011;49531;-34.520;150.798;2023-08-24T14:00:12;3.00;;;1.52;;
63394;SDS011;49531;-34.520;150.798;2023-08-24T14:02:39;3.08;;;1.50;;
63394;SDS011;49531;-34.520;150.798;2023-08-24T14:05:06;1.50;;;1.40;;
63394;SDS011;49531;-34.520;150.798;2023-08-24T14:07:35;1.75;;;1.45;;
63394;SDS011;49531;-34.520;150.798;2023-08-24T14:10:02;2.10;;;1.40;;
63394;SDS011;49531;-34.520;150.798;2023-08-24T14:12:30;1.88;;;1.50;;
63394;SDS011;49531;-34.520;150.798;2023-08-24T14:14:57;2.90;;;1.40;;
63394;SDS011;49531;-34.520;150.798;2023-08-24T14:17:24;2.40;;;1.50;;
63394;SDS011;49531;-34.520;150.798;2023-08-24T14:19:51;1.55;;;1.30;;
63394;SDS011;49531;-34.520;150.798;2023-08-24T14:22:18;3.65;;;1.60;;
63394;SDS011;49531;-34.520;150.798;2023-08-24T14:24:48;2.70;;;1.50;;
63394;SDS011;49531;-34.520;150.798;2023-08-24T14:27:15;2.53;;;1.55;;
63394;SDS011;49531;-34.520;150.798;2023-08-24T14:29:42;2.15;;;1.70;;
63394;SDS011;49531;-34.520;150.798;2023-08-24T14:32:09;2.75;;;1.50;;